Terminal Aerodrome Forecast
Issued by NWS Omaha/Valley, NE

Home | Current Version | Previous Version | Graphics & Text | Print | Product List | Glossary On
Versions: 1 2 3 4 5 6 7 8 9 10 11 12 13 14 15 16 17 18 19 20 21 22 23 24 25 26 27 28 29 30 31 32 33 34 35 36 37 38 39 40
000
FTUS43 KOAX 262128 AAB
TAFOFK
TAF AMD
KOFK 262128Z 2621/2718 36011KT 2SM -RASN BR OVC010
      TEMPO 2621/2623 1SM -SN BR OVC004
     FM270100 36010KT 4SM BR OVC008
     FM270600 01006KT P6SM BKN150=

USA.gov is the U.S. government's official web portal to all federal, state and local government web resources and services.